createdAt,value
2023-04-02T00:00:14.964Z,0.60
2023-04-02T00:05:51.391Z,0.77
2023-04-02T00:10:58.531Z,0.70
2023-04-02T00:16:03.472Z,1.00
2023-04-02T00:21:18.080Z,0.60
2023-04-02T00:26:31.696Z,0.73
2023-04-02T00:31:39.231Z,0.90
2023-04-02T00:36:46.632Z,0.80
2023-04-02T00:41:58.631Z,0.77
2023-04-02T00:47:09.160Z,0.82
2023-04-02T00:52:15.751Z,0.98
2023-04-02T00:57:25.537Z,0.80
2023-04-02T01:02:33.074Z,0.70
2023-04-02T01:07:54.887Z,0.93
2023-04-02T01:13:10.452Z,0.90
2023-04-02T01:18:31.367Z,0.80
2023-04-02T01:23:45.729Z,0.60
2023-04-02T01:29:05.120Z,0.93
2023-04-02T01:34:13.094Z,0.70
2023-04-02T01:39:28.434Z,0.82
2023-04-02T01:44:38.674Z,0.63
2023-04-02T01:54:48.600Z,0.73
2023-04-02T01:59:54.159Z,0.70
2023-04-02T02:04:57.815Z,0.80
2023-04-02T02:10:01.683Z,0.60
2023-04-02T02:15:16.636Z,0.70
2023-04-02T02:20:20.233Z,0.80
2023-04-02T02:25:27.276Z,0.80
2023-04-02T02:30:38.629Z,0.70
2023-04-02T02:35:49.555Z,0.60
2023-04-02T02:41:05.767Z,0.80
2023-04-02T02:46:15.332Z,0.70
2023-04-02T02:51:27.413Z,0.60
2023-04-02T02:56:35.030Z,0.93
2023-04-02T03:01:40.762Z,0.80
2023-04-02T03:06:45.918Z,0.60
2023-04-02T03:11:55.671Z,0.70
2023-04-02T03:17:09.976Z,0.60
2023-04-02T03:22:20.432Z,0.80
2023-04-02T03:27:27.241Z,0.70
2023-04-02T03:32:39.007Z,0.70
2023-04-02T03:37:49.359Z,0.68
2023-04-02T03:42:58.947Z,0.70
2023-04-02T03:48:11.038Z,0.73
2023-04-02T03:53:14.867Z,0.80
2023-04-02T03:58:22.859Z,0.80
2023-04-02T04:03:32.622Z,0.90
2023-04-02T04:08:42.825Z,0.70
2023-04-02T04:13:51.443Z,0.73
2023-04-02T04:19:03.365Z,0.60
2023-04-02T04:24:20.248Z,0.60
2023-04-02T04:29:38.252Z,0.77
2023-04-02T04:34:53.791Z,0.98
2023-04-02T04:45:31.378Z,0.75
2023-04-02T04:50:43.840Z,0.73
2023-04-02T04:55:50.912Z,0.77
2023-04-02T05:01:04.103Z,0.90
2023-04-02T05:06:39.557Z,0.80
2023-04-02T05:11:47.033Z,0.63
2023-04-02T05:16:57.417Z,0.60
2023-04-02T05:22:13.487Z,0.60
2023-04-02T05:27:26.250Z,0.60
2023-04-02T05:32:34.384Z,0.60
2023-04-02T05:37:40.634Z,0.60
2023-04-02T05:42:49.449Z,0.90
2023-04-02T05:47:59.987Z,0.70
2023-04-02T05:53:34.557Z,0.63
2023-04-02T05:58:45.562Z,0.80
2023-04-02T06:04:00.887Z,0.90
2023-04-02T06:09:14.172Z,0.90
2023-04-02T06:14:18.763Z,0.80
2023-04-02T06:19:32.063Z,0.88
2023-04-02T06:24:40.812Z,0.85
2023-04-02T06:29:46.747Z,1.50
2023-04-02T06:34:54.991Z,0.95
2023-04-02T06:40:01.790Z,1.00
2023-04-02T06:45:15.348Z,0.90
2023-04-02T06:50:28.822Z,1.20
2023-04-02T06:55:42.900Z,0.80
2023-04-02T07:00:48.196Z,1.13
2023-04-02T07:11:33.594Z,0.80
2023-04-02T07:16:40.982Z,1.00
2023-04-02T07:21:44.442Z,1.10
2023-04-02T07:26:50.097Z,0.90
2023-04-02T07:31:54.002Z,1.10
2023-04-02T07:36:57.683Z,1.00
2023-04-02T07:42:03.251Z,0.80
2023-04-02T07:47:07.665Z,1.02
2023-04-02T07:52:14.201Z,0.90
2023-04-02T07:57:19.267Z,0.80
2023-04-02T08:02:23.881Z,0.80
2023-04-02T08:07:28.662Z,0.80
2023-04-02T08:12:33.683Z,0.90
2023-04-02T08:17:37.280Z,0.80
2023-04-02T08:22:40.855Z,0.75
2023-04-02T08:27:49.739Z,0.82
2023-04-02T08:32:53.306Z,0.70
2023-04-02T08:37:56.966Z,0.90
2023-04-02T08:43:24.744Z,0.70
2023-04-02T08:48:29.195Z,0.70
2023-04-02T08:53:37.260Z,0.70
2023-04-02T08:58:45.158Z,0.73
2023-04-02T09:03:51.130Z,0.60
2023-04-02T09:08:55.858Z,0.60
2023-04-02T09:14:08.142Z,0.60
2023-04-02T09:19:22.150Z,0.90
2023-04-02T09:24:25.808Z,0.80
2023-04-02T09:29:49.322Z,0.80
2023-04-02T09:35:18.513Z,0.57
2023-04-02T09:40:33.747Z,0.50
2023-04-02T09:45:39.189Z,0.70
2023-04-02T09:50:42.790Z,0.70
2023-04-02T09:55:46.802Z,0.63
2023-04-02T10:00:54.581Z,0.60
2023-04-02T10:06:10.477Z,0.80
2023-04-02T10:11:17.582Z,0.60
2023-04-02T10:16:33.024Z,0.60
2023-04-02T10:21:38.798Z,0.70
2023-04-02T10:26:54.629Z,0.60
2023-04-02T10:32:08.867Z,0.77
2023-04-02T10:37:48.906Z,0.55
2023-04-02T10:43:00.307Z,0.70
2023-04-02T10:48:13.950Z,0.70
2023-04-02T10:53:20.441Z,0.50
2023-04-02T10:58:26.414Z,0.55
2023-04-02T11:03:37.679Z,0.60
2023-04-02T11:08:44.354Z,0.77
2023-04-02T11:13:54.476Z,0.70
2023-04-02T11:19:26.783Z,0.70
2023-04-02T11:24:40.260Z,0.70
2023-04-02T11:29:46.675Z,0.60
2023-04-02T11:35:07.432Z,0.60
2023-04-02T11:40:44.707Z,0.70
2023-04-02T11:45:58.248Z,0.40
2023-04-02T11:51:16.404Z,0.60
2023-04-02T11:56:23.818Z,0.70
2023-04-02T12:01:46.081Z,0.60
2023-04-02T12:07:02.159Z,0.68
2023-04-02T12:12:19.646Z,0.80
2023-04-02T12:17:29.957Z,0.60
2023-04-02T12:27:42.672Z,0.68
2023-04-02T12:32:46.451Z,0.73
2023-04-02T12:37:55.124Z,0.60
2023-04-02T12:42:58.621Z,0.80
2023-04-02T12:48:07.114Z,0.80
2023-04-02T12:53:21.836Z,1.52
2023-04-02T12:58:31.755Z,1.13
2023-04-02T13:03:35.487Z,1.00
2023-04-02T13:08:43.259Z,1.00
2023-04-02T13:13:48.470Z,1.10
2023-04-02T13:18:52.504Z,1.00
2023-04-02T13:23:57.748Z,1.40
2023-04-02T13:29:03.349Z,1.50
2023-04-02T13:34:07.104Z,0.98
2023-04-02T13:39:12.017Z,1.10
2023-04-02T13:44:24.392Z,1.30
2023-04-02T13:49:28.930Z,1.40
2023-04-02T13:54:40.049Z,0.98
2023-04-02T13:59:43.629Z,1.00
2023-04-02T14:04:51.672Z,0.90
2023-04-02T14:10:20.386Z,1.00
2023-04-02T14:15:39.607Z,0.90
2023-04-02T14:20:51.703Z,1.10
2023-04-02T14:26:08.319Z,1.15
2023-04-02T14:31:20.682Z,0.90
2023-04-02T14:36:32.062Z,1.20
2023-04-02T14:41:44.172Z,1.30
2023-04-02T14:46:48.110Z,1.30
2023-04-02T14:51:58.114Z,0.90
2023-04-02T14:57:07.726Z,1.20
2023-04-02T15:02:19.859Z,0.73
2023-04-02T15:07:26.861Z,1.10
2023-04-02T15:12:34.778Z,1.20
2023-04-02T15:17:38.397Z,1.10
2023-04-02T15:22:58.010Z,1.23
2023-04-02T15:28:20.862Z,1.17
2023-04-02T15:33:37.035Z,1.10
2023-04-02T15:38:45.990Z,1.10
2023-04-02T15:44:00.826Z,1.50
2023-04-02T15:49:43.541Z,1.20
2023-04-02T15:55:01.771Z,1.52
2023-04-02T16:00:22.153Z,1.30
2023-04-02T16:05:37.426Z,1.10
2023-04-02T16:10:43.337Z,1.30
2023-04-02T16:15:53.490Z,0.90
2023-04-02T16:21:26.892Z,0.98
2023-04-02T16:26:44.939Z,1.10
2023-04-02T16:31:58.923Z,1.10
2023-04-02T16:37:07.453Z,1.25
2023-04-02T16:42:27.622Z,1.20
2023-04-02T16:47:47.999Z,1.63
2023-04-02T16:52:58.096Z,1.23
2023-04-02T16:58:14.456Z,1.50
2023-04-02T17:03:40.556Z,1.35
2023-04-02T17:08:48.336Z,1.27
2023-04-02T17:13:56.617Z,1.40
2023-04-02T17:19:02.830Z,1.55
2023-04-02T17:24:21.168Z,1.40
2023-04-02T17:29:34.848Z,1.42
2023-04-02T17:34:39.751Z,1.30
2023-04-02T17:39:53.405Z,1.48
2023-04-02T17:45:12.528Z,1.48
2023-04-02T17:50:46.108Z,1.50
2023-04-02T17:56:01.780Z,1.90
2023-04-02T18:01:12.398Z,1.75
2023-04-02T18:06:22.779Z,1.98
2023-04-02T18:11:36.077Z,1.67
2023-04-02T18:16:50.354Z,1.90
2023-04-02T18:22:03.125Z,2.13
2023-04-02T18:27:18.900Z,2.05
2023-04-02T18:32:44.442Z,2.40
2023-04-02T18:38:09.353Z,2.15
2023-04-02T18:43:27.419Z,1.90
2023-04-02T18:48:41.940Z,2.20
2023-04-02T18:53:48.488Z,2.33
2023-04-02T18:58:59.163Z,2.10
2023-04-02T19:04:06.050Z,1.98
2023-04-02T19:09:17.821Z,1.80
2023-04-02T19:14:23.323Z,2.13
2023-04-02T19:19:28.479Z,2.00
2023-04-02T19:24:47.349Z,2.00
2023-04-02T19:30:04.771Z,1.95
2023-04-02T19:35:21.059Z,2.13
2023-04-02T19:40:40.729Z,2.15
2023-04-02T19:45:47.776Z,2.00
2023-04-02T19:50:51.447Z,2.10
2023-04-02T19:55:57.565Z,1.85
2023-04-02T20:01:01.806Z,2.38
2023-04-02T20:06:06.464Z,2.20
2023-04-02T20:11:11.517Z,2.53
2023-04-02T20:16:15.415Z,2.00
2023-04-02T20:21:21.308Z,2.42
2023-04-02T20:26:27.617Z,2.20
2023-04-02T20:31:31.669Z,2.33
2023-04-02T20:36:35.281Z,1.80
2023-04-02T20:41:40.102Z,2.30
2023-04-02T20:46:43.634Z,2.10
2023-04-02T20:51:48.506Z,2.05
2023-04-02T20:56:53.647Z,1.95
2023-04-02T21:01:57.305Z,2.13
2023-04-02T21:07:02.488Z,2.58
2023-04-02T21:12:07.907Z,2.03
2023-04-02T21:17:11.371Z,2.25
2023-04-02T21:22:15.026Z,2.28
2023-04-02T21:27:19.871Z,1.73
2023-04-02T21:32:23.374Z,1.92
2023-04-02T21:37:26.936Z,2.03
2023-04-02T21:42:31.907Z,2.38
2023-04-02T21:47:35.500Z,1.90
2023-04-02T21:52:38.978Z,1.92
2023-04-02T21:57:43.914Z,1.90
2023-04-02T22:02:47.714Z,1.98
2023-04-02T22:07:51.418Z,1.90
2023-04-02T22:12:56.479Z,2.20
2023-04-02T22:18:00.055Z,1.90
2023-04-02T22:23:28.150Z,2.13
2023-04-02T22:28:33.778Z,1.80
2023-04-02T22:33:37.303Z,1.95
2023-04-02T22:38:40.908Z,1.90
2023-04-02T22:43:47.284Z,2.20
2023-04-02T22:48:51.154Z,2.20
2023-04-02T22:53:55.895Z,1.80
2023-04-02T22:59:00.909Z,2.10
2023-04-02T23:04:05.340Z,2.03
2023-04-02T23:09:09.077Z,2.10
2023-04-02T23:14:13.960Z,1.88
2023-04-02T23:19:17.366Z,2.00
2023-04-02T23:24:20.895Z,2.08
2023-04-02T23:29:25.807Z,2.00
2023-04-02T23:34:29.266Z,2.05
2023-04-02T23:39:32.800Z,2.30
2023-04-02T23:44:37.814Z,2.20
2023-04-02T23:49:42.146Z,1.80
2023-04-02T23:54:45.558Z,2.28
2023-04-02T23:59:50.475Z,2.20
